createdAt,value
2019-02-03T00:01:14.250Z,35.47
2019-02-03T00:03:40.642Z,37.47
2019-02-03T00:06:07.066Z,36.13
2019-02-03T00:08:33.381Z,36.20
2019-02-03T00:10:59.726Z,37.23
2019-02-03T00:13:25.934Z,37.50
2019-02-03T00:15:52.138Z,35.80
2019-02-03T00:18:18.358Z,35.73
2019-02-03T00:20:44.567Z,35.37
2019-02-03T00:23:10.795Z,35.43
2019-02-03T00:25:36.991Z,34.23
2019-02-03T00:28:03.315Z,36.47
2019-02-03T00:30:29.643Z,35.70
2019-02-03T00:32:55.860Z,35.00
2019-02-03T00:35:22.074Z,33.90
2019-02-03T00:37:48.324Z,36.17
2019-02-03T00:40:14.991Z,37.63
2019-02-03T00:42:41.348Z,34.33
2019-02-03T00:45:10.559Z,35.87
2019-02-03T00:47:36.757Z,36.10
2019-02-03T00:50:09.470Z,34.87
2019-02-03T00:52:36.159Z,35.93
2019-02-03T00:55:05.390Z,35.33
2019-02-03T00:57:32.458Z,33.67
2019-02-03T00:59:58.819Z,35.83
2019-02-03T01:02:25.517Z,34.70
2019-02-03T01:04:52.071Z,33.30
2019-02-03T01:07:27.178Z,34.30
2019-02-03T01:09:46.499Z,32.50
2019-02-03T01:12:12.699Z,34.17
2019-02-03T01:14:38.943Z,32.90
2019-02-03T01:17:05.249Z,32.10
2019-02-03T01:19:31.711Z,32.50
2019-02-03T01:21:57.927Z,32.67
2019-02-03T01:24:24.131Z,32.17
2019-02-03T01:26:50.358Z,31.70
2019-02-03T01:29:16.571Z,31.40
2019-02-03T01:31:42.807Z,32.47
2019-02-03T01:34:09.111Z,32.63
2019-02-03T01:36:35.330Z,32.10
2019-02-03T01:39:04.046Z,31.20
2019-02-03T01:41:30.252Z,32.00
2019-02-03T01:43:56.574Z,32.70
2019-02-03T01:46:22.878Z,31.70
2019-02-03T01:48:49.203Z,31.70
2019-02-03T01:51:15.406Z,31.53
2019-02-03T01:53:41.631Z,32.17
2019-02-03T01:56:08.139Z,31.53
2019-02-03T01:58:34.458Z,32.50
2019-02-03T02:01:01.069Z,31.07
2019-02-03T02:03:27.285Z,31.07
2019-02-03T02:05:53.487Z,31.43
2019-02-03T02:08:39.670Z,31.93
2019-02-03T02:11:05.887Z,32.33
2019-02-03T02:13:32.094Z,33.40
2019-02-03T02:15:58.327Z,34.83
2019-02-03T02:18:24.646Z,34.47
2019-02-03T02:20:50.971Z,34.47
2019-02-03T02:23:17.195Z,34.10
2019-02-03T02:25:43.695Z,35.23
2019-02-03T02:28:09.902Z,34.73
2019-02-03T02:30:39.160Z,36.70
2019-02-03T02:33:06.270Z,35.80
2019-02-03T02:35:32.632Z,38.97
2019-02-03T02:38:06.398Z,38.67
2019-02-03T02:40:27.064Z,38.40
2019-02-03T02:42:54.187Z,39.27
2019-02-03T02:45:20.846Z,39.10
2019-02-03T02:47:47.171Z,37.67
2019-02-03T02:50:28.507Z,39.37
2019-02-03T02:52:55.047Z,42.10
2019-02-03T02:55:22.030Z,43.00
2019-02-03T02:57:48.751Z,42.03
2019-02-03T03:00:17.710Z,43.87
2019-02-03T03:02:44.389Z,44.33
2019-02-03T03:05:10.898Z,44.47
2019-02-03T03:07:37.118Z,45.20
2019-02-03T03:10:05.748Z,46.00
2019-02-03T03:12:32.434Z,45.83
2019-02-03T03:14:58.657Z,46.67
2019-02-03T03:17:24.850Z,47.33
2019-02-03T03:19:51.082Z,46.87
2019-02-03T03:22:17.391Z,46.60
2019-02-03T03:24:43.602Z,46.47
2019-02-03T03:27:09.806Z,47.50
2019-02-03T03:29:36.031Z,46.53
2019-02-03T03:32:03.356Z,44.03
2019-02-03T03:34:29.571Z,43.60
2019-02-03T03:36:55.923Z,43.67
2019-02-03T03:39:22.437Z,40.60
2019-02-03T03:41:48.657Z,42.40
2019-02-03T03:44:14.874Z,42.13
2019-02-03T03:46:41.199Z,41.50
2019-02-03T03:49:07.795Z,42.43
2019-02-03T03:51:34.329Z,42.30
2019-02-03T03:54:00.631Z,42.03
2019-02-03T03:56:26.866Z,41.83
2019-02-03T03:58:53.074Z,41.33
2019-02-03T04:01:19.411Z,41.50
2019-02-03T04:03:45.695Z,41.73
2019-02-03T04:06:12.209Z,41.33
2019-02-03T04:08:45.353Z,41.53
2019-02-03T04:11:06.635Z,41.60
2019-02-03T04:13:32.863Z,41.13
2019-02-03T04:15:59.067Z,42.47
2019-02-03T04:18:25.582Z,42.00
2019-02-03T04:20:51.782Z,40.47
2019-02-03T04:23:18.398Z,40.77
2019-02-03T04:25:44.794Z,39.27
2019-02-03T04:28:11.110Z,39.87
2019-02-03T04:30:37.439Z,40.13
2019-02-03T04:33:03.682Z,42.00
2019-02-03T04:35:29.994Z,40.17
2019-02-03T04:37:56.295Z,39.87
2019-02-03T04:40:22.741Z,41.07
2019-02-03T04:42:49.434Z,40.30
2019-02-03T04:45:17.178Z,39.60
2019-02-03T04:47:43.842Z,38.80
2019-02-03T04:50:12.964Z,38.93
2019-02-03T04:52:39.175Z,41.43
2019-02-03T04:55:08.794Z,40.27
2019-02-03T04:57:35.402Z,39.37
2019-02-03T05:00:04.016Z,40.20
2019-02-03T05:02:30.322Z,40.87
2019-02-03T05:04:56.530Z,40.80
2019-02-03T05:07:22.754Z,40.60
2019-02-03T05:09:48.956Z,40.10
2019-02-03T05:12:15.169Z,40.83
2019-02-03T05:14:41.875Z,41.30
2019-02-03T05:17:08.203Z,42.00
2019-02-03T05:19:34.411Z,40.70
2019-02-03T05:22:00.630Z,40.17
2019-02-03T05:24:26.827Z,41.07
2019-02-03T05:26:53.055Z,40.53
2019-02-03T05:29:19.307Z,41.47
2019-02-03T05:31:45.588Z,39.90
2019-02-03T05:34:12.106Z,42.13
2019-02-03T05:36:38.306Z,41.67
2019-02-03T05:39:05.531Z,41.23
2019-02-03T05:41:31.732Z,42.97
2019-02-03T05:43:57.947Z,40.63
2019-02-03T05:46:24.147Z,41.73
2019-02-03T05:48:50.370Z,41.00
2019-02-03T05:51:17.074Z,42.37
2019-02-03T05:53:43.319Z,41.83
2019-02-03T05:56:09.616Z,42.00
2019-02-03T05:58:35.916Z,41.03
2019-02-03T06:01:02.538Z,41.20
2019-02-03T06:03:28.742Z,41.70
2019-02-03T06:05:54.963Z,42.63
2019-02-03T06:08:21.954Z,40.90
2019-02-03T06:10:48.280Z,41.70
2019-02-03T06:13:14.726Z,42.73
2019-02-03T06:15:41.048Z,44.17
2019-02-03T06:18:07.458Z,41.67
2019-02-03T06:20:33.678Z,42.50
2019-02-03T06:22:59.889Z,41.23
2019-02-03T06:25:26.197Z,41.30
2019-02-03T06:27:52.620Z,42.17
2019-02-03T06:30:22.649Z,42.13
2019-02-03T06:32:48.970Z,41.43
2019-02-03T06:35:15.174Z,41.57
2019-02-03T06:37:41.468Z,40.77
2019-02-03T06:40:09.499Z,43.73
2019-02-03T06:42:36.115Z,41.07
2019-02-03T06:45:06.547Z,43.23
2019-02-03T06:47:32.867Z,43.17
2019-02-03T06:49:59.057Z,42.73
2019-02-03T06:52:25.277Z,42.47
2019-02-03T06:54:51.502Z,43.70
2019-02-03T06:57:17.702Z,43.37
2019-02-03T06:59:50.942Z,42.60
2019-02-03T07:02:12.537Z,43.60
2019-02-03T07:04:44.697Z,43.13
2019-02-03T07:07:11.098Z,42.23
2019-02-03T07:09:37.314Z,40.53
2019-02-03T07:12:04.470Z,40.63
2019-02-03T07:14:30.684Z,41.07
2019-02-03T07:16:56.890Z,39.23
2019-02-03T07:19:23.327Z,40.70
2019-02-03T07:21:49.747Z,41.00
2019-02-03T07:24:16.066Z,39.93
2019-02-03T07:26:42.275Z,42.03
2019-02-03T07:29:08.518Z,40.63
2019-02-03T07:31:34.822Z,41.47
2019-02-03T07:34:01.342Z,40.47
2019-02-03T07:36:27.578Z,44.27
2019-02-03T07:38:54.055Z,43.20
2019-02-03T07:41:20.263Z,42.17
2019-02-03T07:43:46.554Z,39.33
2019-02-03T07:46:12.856Z,38.83
2019-02-03T07:48:39.298Z,38.20
2019-02-03T07:51:05.991Z,39.53
2019-02-03T07:53:32.443Z,37.27
2019-02-03T07:55:58.663Z,37.60
2019-02-03T07:58:24.971Z,37.27
2019-02-03T08:00:51.195Z,37.50
2019-02-03T08:03:17.706Z,37.33
2019-02-03T08:05:43.946Z,37.13
2019-02-03T08:08:10.150Z,35.37
2019-02-03T08:10:37.270Z,39.37
2019-02-03T08:13:03.581Z,47.03
2019-02-03T08:15:30.067Z,35.73
2019-02-03T08:17:56.262Z,35.93
2019-02-03T08:20:28.166Z,34.73
2019-02-03T08:22:54.679Z,36.13
2019-02-03T08:25:21.217Z,35.10
2019-02-03T08:27:49.174Z,36.27
2019-02-03T08:30:22.537Z,34.40
2019-02-03T08:32:48.846Z,33.57
2019-02-03T08:35:15.183Z,34.00
2019-02-03T08:37:41.498Z,34.00
2019-02-03T08:40:13.891Z,35.10
2019-02-03T08:42:40.207Z,33.93
2019-02-03T08:45:09.006Z,33.07
2019-02-03T08:47:35.229Z,31.97
2019-02-03T08:50:02.032Z,32.70
2019-02-03T08:52:28.351Z,31.67
2019-02-03T08:54:58.481Z,33.10
2019-02-03T08:57:22.859Z,32.23
2019-02-03T08:59:49.404Z,31.80
2019-02-03T09:02:15.618Z,31.47
2019-02-03T09:04:41.815Z,30.63
2019-02-03T09:07:08.034Z,39.27
2019-02-03T09:09:34.234Z,31.13
2019-02-03T09:12:00.460Z,30.50
2019-02-03T09:14:26.767Z,29.30
2019-02-03T09:16:53.386Z,29.30
2019-02-03T09:19:19.703Z,29.23
2019-02-03T09:21:45.925Z,29.23
2019-02-03T09:24:12.242Z,27.87
2019-02-03T09:26:38.459Z,27.23
2019-02-03T09:29:05.206Z,26.20
2019-02-03T09:31:31.763Z,26.50
2019-02-03T09:33:58.311Z,26.87
2019-02-03T09:36:24.600Z,24.87
2019-02-03T09:38:50.814Z,26.60
2019-02-03T09:41:17.322Z,25.13
2019-02-03T09:43:43.553Z,26.00
2019-02-03T09:46:09.871Z,24.60
2019-02-03T09:48:36.085Z,25.17
2019-02-03T09:51:02.393Z,32.37
2019-02-03T09:53:29.011Z,30.00
2019-02-03T09:55:55.239Z,24.27
2019-02-03T09:58:21.605Z,24.40
2019-02-03T10:00:47.919Z,22.77
2019-02-03T10:03:14.181Z,23.03
2019-02-03T10:05:40.402Z,22.20
2019-02-03T10:08:06.711Z,22.20
2019-02-03T10:10:40.321Z,23.07
2019-02-03T10:13:07.586Z,22.93
2019-02-03T10:15:33.867Z,22.53
2019-02-03T10:18:00.231Z,22.27
2019-02-03T10:20:26.754Z,21.23
2019-02-03T10:22:57.775Z,20.97
2019-02-03T10:25:26.828Z,21.10
2019-02-03T10:27:53.605Z,19.53
2019-02-03T10:30:21.118Z,20.40
2019-02-03T10:32:47.830Z,20.80
2019-02-03T10:35:23.541Z,19.53
2019-02-03T10:37:48.650Z,19.50
2019-02-03T10:40:17.869Z,19.00
2019-02-03T10:42:44.692Z,18.23
2019-02-03T10:45:14.216Z,18.60
2019-02-03T10:47:40.924Z,17.97
2019-02-03T10:50:13.723Z,18.60
2019-02-03T10:52:40.123Z,17.60
2019-02-03T10:55:07.586Z,17.87
2019-02-03T10:57:34.497Z,19.00
2019-02-03T11:00:01.098Z,27.40
2019-02-03T11:02:27.306Z,17.20
2019-02-03T11:04:53.527Z,17.73
2019-02-03T11:07:19.879Z,17.50
2019-02-03T11:09:46.093Z,16.57
2019-02-03T11:12:12.407Z,15.60
2019-02-03T11:14:38.726Z,15.77
2019-02-03T11:17:07.990Z,14.80
2019-02-03T11:19:34.211Z,14.63
2019-02-03T11:22:00.538Z,12.57
2019-02-03T11:24:26.981Z,10.00
2019-02-03T11:26:53.410Z,7.80
2019-02-03T11:29:19.719Z,7.53
2019-02-03T11:31:46.045Z,6.70
2019-02-03T11:34:12.354Z,7.00
2019-02-03T11:36:39.498Z,13.87
2019-02-03T11:39:06.202Z,8.30
2019-02-03T11:41:32.530Z,6.93
2019-02-03T11:43:58.833Z,6.37
2019-02-03T11:46:25.174Z,6.87
2019-02-03T11:48:51.478Z,6.83
2019-02-03T11:51:17.735Z,6.77
2019-02-03T11:53:44.457Z,6.80
2019-02-03T11:56:11.283Z,5.87
2019-02-03T11:58:37.531Z,5.43
2019-02-03T12:01:04.555Z,6.50
2019-02-03T12:03:30.770Z,5.30
2019-02-03T12:05:57.141Z,5.83
2019-02-03T12:08:26.065Z,5.50
2019-02-03T12:10:52.279Z,5.90
2019-02-03T12:13:18.804Z,5.30
2019-02-03T12:15:47.886Z,5.27
2019-02-03T12:18:13.234Z,4.93
2019-02-03T12:20:39.435Z,4.77
2019-02-03T12:23:05.750Z,4.50
2019-02-03T12:25:40.230Z,3.80
2019-02-03T12:28:06.958Z,4.10
2019-02-03T12:30:33.463Z,4.33
2019-02-03T12:33:01.083Z,4.50
2019-02-03T12:35:27.491Z,4.17
2019-02-03T12:37:53.914Z,3.57
2019-02-03T12:40:29.978Z,3.80
2019-02-03T12:42:56.311Z,4.00
2019-02-03T12:45:22.923Z,3.63
2019-02-03T12:47:51.135Z,3.57
2019-02-03T12:50:18.050Z,3.93
2019-02-03T12:52:45.253Z,3.33
2019-02-03T12:55:14.595Z,4.83
2019-02-03T12:57:41.190Z,5.03
2019-02-03T13:00:13.358Z,6.23
2019-02-03T13:02:39.834Z,4.47
2019-02-03T13:05:09.282Z,4.50
2019-02-03T13:07:35.708Z,4.03
2019-02-03T13:10:16.396Z,4.60
2019-02-03T13:12:33.936Z,4.63
2019-02-03T13:15:00.339Z,4.70
2019-02-03T13:17:26.821Z,3.90
2019-02-03T13:19:53.051Z,4.37
2019-02-03T13:22:19.354Z,4.43
2019-02-03T13:24:45.790Z,3.83
2019-02-03T13:27:12.090Z,4.27
2019-02-03T13:29:38.716Z,3.97
2019-02-03T13:32:10.919Z,3.47
2019-02-03T13:34:33.261Z,3.50
2019-02-03T13:36:59.682Z,4.00
2019-02-03T13:39:45.767Z,3.53
2019-02-03T13:42:12.366Z,3.57
2019-02-03T13:44:38.686Z,3.13
2019-02-03T13:47:05.022Z,3.50
2019-02-03T13:49:31.247Z,3.50
2019-02-03T13:51:57.444Z,3.30
2019-02-03T13:54:23.783Z,3.67
2019-02-03T13:56:50.091Z,3.50
2019-02-03T13:59:16.614Z,3.70
2019-02-03T14:01:42.823Z,3.70
2019-02-03T14:04:09.251Z,4.10
2019-02-03T14:06:35.810Z,4.10
2019-02-03T14:09:05.929Z,4.50
2019-02-03T14:11:32.130Z,4.33
2019-02-03T14:13:58.346Z,4.50
2019-02-03T14:16:24.546Z,6.13
2019-02-03T14:18:50.826Z,9.70
2019-02-03T14:21:17.030Z,5.83
2019-02-03T14:23:43.603Z,5.00
2019-02-03T14:26:10.078Z,5.80
2019-02-03T14:28:36.286Z,5.63
2019-02-03T14:31:02.606Z,5.70
2019-02-03T14:33:29.324Z,19.07
2019-02-03T14:35:55.567Z,6.60
2019-02-03T14:38:21.883Z,5.97
2019-02-03T14:40:48.242Z,5.00
2019-02-03T14:43:14.454Z,4.77
2019-02-03T14:45:40.887Z,4.77
2019-02-03T14:48:07.301Z,4.80
2019-02-03T14:50:34.115Z,5.63
2019-02-03T14:53:03.850Z,6.43
2019-02-03T14:55:33.073Z,5.23
2019-02-03T14:57:59.401Z,5.20
2019-02-03T15:00:31.122Z,21.47
2019-02-03T15:02:58.641Z,9.80
2019-02-03T15:05:25.259Z,6.10
2019-02-03T15:07:51.479Z,6.10
2019-02-03T15:10:17.786Z,5.40
2019-02-03T15:12:46.923Z,5.30
2019-02-03T15:15:19.862Z,4.97
2019-02-03T15:17:46.105Z,5.10
2019-02-03T15:20:15.913Z,5.50
2019-02-03T15:22:42.131Z,4.90
2019-02-03T15:25:08.435Z,3.90
2019-02-03T15:27:35.122Z,4.37
2019-02-03T15:30:01.841Z,3.80
2019-02-03T15:32:28.060Z,4.30
2019-02-03T15:34:54.270Z,5.90
2019-02-03T15:37:20.495Z,4.97
2019-02-03T15:39:46.702Z,3.50
2019-02-03T15:42:13.153Z,3.63
2019-02-03T15:44:39.353Z,3.57
2019-02-03T15:47:05.575Z,3.33
2019-02-03T15:49:31.887Z,3.57
2019-02-03T15:51:58.109Z,3.40
2019-02-03T15:54:24.914Z,3.40
2019-02-03T15:56:51.251Z,3.53
2019-02-03T15:59:17.446Z,3.77
2019-02-03T16:01:43.670Z,4.40
2019-02-03T16:04:09.875Z,3.83
2019-02-03T16:06:36.097Z,4.27
2019-02-03T16:09:03.913Z,3.90
2019-02-03T16:11:30.814Z,3.83
2019-02-03T16:13:57.022Z,4.00
2019-02-03T16:16:23.358Z,3.67
2019-02-03T16:18:49.678Z,3.60
2019-02-03T16:21:15.907Z,3.83
2019-02-03T16:23:42.111Z,3.33
2019-02-03T16:26:08.582Z,3.57
2019-02-03T16:28:34.803Z,3.53
2019-02-03T16:31:01.027Z,3.70
2019-02-03T16:33:27.277Z,3.30
2019-02-03T16:35:54.563Z,3.50
2019-02-03T16:38:22.976Z,6.83
2019-02-03T16:40:48.985Z,4.13
2019-02-03T16:43:15.630Z,3.60
2019-02-03T16:45:42.014Z,3.37
2019-02-03T16:48:08.443Z,3.90
2019-02-03T16:50:34.742Z,3.50
2019-02-03T16:53:10.024Z,3.40
2019-02-03T16:55:36.830Z,3.23
2019-02-03T16:58:03.966Z,3.00
2019-02-03T17:00:31.472Z,4.17
2019-02-03T17:03:00.867Z,3.80
2019-02-03T17:05:28.872Z,3.97
2019-02-03T17:07:56.397Z,4.07
2019-02-03T17:10:23.810Z,3.87
2019-02-03T17:12:50.135Z,3.63
2019-02-03T17:15:29.286Z,4.20
2019-02-03T17:17:56.345Z,3.70
2019-02-03T17:20:22.841Z,3.97
2019-02-03T17:22:49.048Z,3.90
2019-02-03T17:25:25.094Z,4.00
2019-02-03T17:27:51.610Z,4.60
2019-02-03T17:30:18.130Z,4.30
2019-02-03T17:32:44.656Z,3.80
2019-02-03T17:35:11.575Z,4.83
2019-02-03T17:37:38.092Z,4.30
2019-02-03T17:40:10.719Z,3.93
2019-02-03T17:42:45.687Z,4.50
2019-02-03T17:45:14.711Z,4.10
2019-02-03T17:47:41.515Z,4.77
2019-02-03T17:50:11.710Z,4.07
2019-02-03T17:52:39.170Z,4.50
2019-02-03T17:55:09.458Z,4.23
2019-02-03T17:57:35.666Z,4.00
2019-02-03T18:00:04.589Z,4.87
2019-02-03T18:02:33.839Z,4.97
2019-02-03T18:04:59.335Z,4.27
2019-02-03T18:07:25.538Z,5.53
2019-02-03T18:09:51.770Z,46.67
2019-02-03T18:12:18.205Z,41.03
2019-02-03T18:14:44.508Z,5.50
2019-02-03T18:17:10.830Z,5.50
2019-02-03T18:19:37.537Z,5.00
2019-02-03T18:22:04.271Z,4.53
2019-02-03T18:24:30.574Z,5.67
2019-02-03T18:26:56.807Z,5.00
2019-02-03T18:29:23.106Z,5.00
2019-02-03T18:31:49.322Z,5.30
2019-02-03T18:34:15.890Z,4.80
2019-02-03T18:36:42.117Z,4.87
2019-02-03T18:39:08.674Z,5.17
2019-02-03T18:41:35.088Z,5.30
2019-02-03T18:44:01.307Z,5.37
2019-02-03T18:46:27.747Z,5.60
2019-02-03T18:48:54.155Z,5.37
2019-02-03T18:51:20.879Z,6.60
2019-02-03T18:53:47.182Z,12.67
2019-02-03T18:56:13.890Z,72.63
2019-02-03T18:58:40.123Z,35.97
2019-02-03T19:01:06.834Z,9.97
2019-02-03T19:03:33.049Z,10.10
2019-02-03T19:05:59.258Z,9.30
2019-02-03T19:08:25.587Z,8.70
2019-02-03T19:10:51.798Z,9.07
2019-02-03T19:13:18.021Z,9.60
2019-02-03T19:15:44.226Z,9.43
2019-02-03T19:18:10.466Z,8.70
2019-02-03T19:20:41.602Z,8.93
2019-02-03T19:23:08.438Z,9.37
2019-02-03T19:25:34.642Z,9.67
2019-02-03T19:28:00.888Z,10.73
2019-02-03T19:30:49.081Z,11.17
2019-02-03T19:33:15.590Z,9.47
2019-02-03T19:35:41.799Z,8.87
2019-02-03T19:38:08.223Z,8.20
2019-02-03T19:40:34.685Z,8.10
2019-02-03T19:43:01.529Z,7.80
2019-02-03T19:45:29.238Z,7.93
2019-02-03T19:47:55.642Z,7.03
2019-02-03T19:50:25.071Z,7.67
2019-02-03T19:52:51.281Z,7.90
2019-02-03T19:55:17.605Z,9.07
2019-02-03T19:57:43.812Z,9.77
2019-02-03T20:00:19.356Z,9.40
2019-02-03T20:02:45.859Z,9.00
2019-02-03T20:05:12.291Z,9.17
2019-02-03T20:07:38.489Z,10.30
2019-02-03T20:10:08.511Z,149.70
2019-02-03T20:12:34.711Z,32.10
2019-02-03T20:15:09.525Z,25.27
2019-02-03T20:17:29.164Z,14.50
2019-02-03T20:19:55.447Z,11.80
2019-02-03T20:22:21.791Z,11.47
2019-02-03T20:24:48.015Z,12.03
2019-02-03T20:27:14.229Z,11.83
2019-02-03T20:29:40.444Z,11.80
2019-02-03T20:32:06.863Z,13.10
2019-02-03T20:34:33.379Z,15.67
2019-02-03T20:36:59.690Z,14.70
2019-02-03T20:39:26.019Z,17.23
2019-02-03T20:41:52.233Z,19.03
2019-02-03T20:44:18.473Z,14.67
2019-02-03T20:46:44.679Z,16.73
2019-02-03T20:49:10.918Z,15.03
2019-02-03T20:51:37.189Z,14.20
2019-02-03T20:54:03.867Z,12.10
2019-02-03T20:56:30.084Z,11.40
2019-02-03T20:58:57.417Z,11.83
2019-02-03T21:01:23.915Z,11.23
2019-02-03T21:03:50.114Z,11.93
2019-02-03T21:06:16.334Z,11.40
2019-02-03T21:08:42.526Z,12.03
2019-02-03T21:11:08.810Z,11.47
2019-02-03T21:13:35.107Z,11.17
2019-02-03T21:16:01.410Z,11.07
2019-02-03T21:18:27.655Z,11.03
2019-02-03T21:20:53.974Z,11.07
2019-02-03T21:23:22.091Z,10.97
2019-02-03T21:25:48.338Z,12.20
2019-02-03T21:28:14.574Z,11.30
2019-02-03T21:30:41.278Z,11.47
2019-02-03T21:33:07.608Z,11.73
2019-02-03T21:35:34.106Z,11.90
2019-02-03T21:38:00.482Z,13.20
2019-02-03T21:40:28.914Z,12.47
2019-02-03T21:42:55.143Z,12.03
2019-02-03T21:45:22.150Z,12.30
2019-02-03T21:47:48.975Z,12.03
2019-02-03T21:50:18.285Z,12.30
2019-02-03T21:52:49.490Z,12.03
2019-02-03T21:55:17.718Z,11.60
2019-02-03T21:57:50.377Z,12.47
2019-02-03T22:00:24.586Z,12.30
2019-02-03T22:02:50.943Z,12.30
2019-02-03T22:05:17.138Z,10.93
2019-02-03T22:07:43.363Z,11.47
2019-02-03T22:10:15.318Z,11.50
2019-02-03T22:12:41.735Z,10.43
2019-02-03T22:15:08.431Z,10.47
2019-02-03T22:17:34.984Z,10.23
2019-02-03T22:20:03.507Z,10.13
2019-02-03T22:22:29.807Z,11.20
2019-02-03T22:24:56.035Z,10.90
2019-02-03T22:27:22.238Z,10.50
2019-02-03T22:29:48.465Z,11.97
2019-02-03T22:32:14.766Z,10.80
2019-02-03T22:34:41.286Z,10.80
2019-02-03T22:37:07.486Z,11.40
2019-02-03T22:39:33.810Z,10.40
2019-02-03T22:42:00.018Z,10.80
2019-02-03T22:44:26.443Z,11.17
2019-02-03T22:46:52.755Z,10.77
2019-02-03T22:49:18.962Z,10.90
2019-02-03T22:51:45.583Z,11.50
2019-02-03T22:54:11.781Z,11.13
2019-02-03T22:56:37.999Z,11.60
2019-02-03T22:59:04.299Z,11.17
2019-02-03T23:01:31.102Z,11.47
2019-02-03T23:03:57.306Z,11.03
2019-02-03T23:06:23.630Z,11.10
2019-02-03T23:08:49.834Z,10.90
2019-02-03T23:11:16.054Z,11.33
2019-02-03T23:13:42.260Z,10.83
2019-02-03T23:16:18.048Z,11.33
2019-02-03T23:18:37.354Z,11.70
2019-02-03T23:21:03.994Z,12.20
2019-02-03T23:23:30.322Z,12.67
2019-02-03T23:25:56.536Z,11.83
2019-02-03T23:28:23.153Z,12.23
2019-02-03T23:30:49.363Z,12.63
2019-02-03T23:33:15.681Z,12.97
2019-02-03T23:35:41.891Z,13.90
2019-02-03T23:38:08.309Z,13.03
2019-02-03T23:40:34.510Z,13.97
2019-02-03T23:43:00.961Z,14.07
2019-02-03T23:45:27.358Z,13.40
2019-02-03T23:47:53.573Z,13.10
2019-02-03T23:50:20.678Z,13.80
2019-02-03T23:52:46.907Z,14.07
2019-02-03T23:55:13.422Z,14.90
2019-02-03T23:57:40.039Z,13.80
